sensor_id;sensor_type;location;lat;lon;timestamp;temperature;humidity
851;DHT22;412;51.400;7.480;2023-03-14T00:01:17;13.50;99.90
851;DHT22;412;51.400;7.480;2023-03-14T00:03:43;13.40;99.90
851;DHT22;412;51.400;7.480;2023-03-14T00:06:11;13.40;99.90
851;DHT22;412;51.400;7.480;2023-03-14T00:08:37;13.40;99.90
851;DHT22;412;51.400;7.480;2023-03-14T00:11:12;13.50;99.90
851;DHT22;412;51.400;7.480;2023-03-14T00:13:38;13.50;99.90
851;DHT22;412;51.400;7.480;2023-03-14T00:16:06;13.50;99.90
851;DHT22;412;51.400;7.480;2023-03-14T00:18:32;13.50;99.90
851;DHT22;412;51.400;7.480;2023-03-14T00:20:59;13.50;99.90
851;DHT22;412;51.400;7.480;2023-03-14T00:23:27;13.50;99.90
851;DHT22;412;51.400;7.480;2023-03-14T00:25:53;13.60;99.90
851;DHT22;412;51.400;7.480;2023-03-14T00:28:19;13.40;99.90
851;DHT22;412;51.400;7.480;2023-03-14T00:30:48;13.40;99.90
851;DHT22;412;51.400;7.480;2023-03-14T00:33:13;13.40;99.90
851;DHT22;412;51.400;7.480;2023-03-14T00:35:39;13.40;99.90
851;DHT22;412;51.400;7.480;2023-03-14T00:38:05;13.30;99.90
851;DHT22;412;51.400;7.480;2023-03-14T00:40:30;13.40;99.90
851;DHT22;412;51.400;7.480;2023-03-14T00:42:56;13.40;99.90
851;DHT22;412;51.400;7.480;2023-03-14T00:45:21;13.40;99.90
851;DHT22;412;51.400;7.480;2023-03-14T00:47:47;13.30;99.90
851;DHT22;412;51.400;7.480;2023-03-14T00:50:13;13.20;99.90
851;DHT22;412;51.400;7.480;2023-03-14T00:52:39;13.20;99.90
851;DHT22;412;51.400;7.480;2023-03-14T00:55:05;13.20;99.90
851;DHT22;412;51.400;7.480;2023-03-14T00:57:30;13.10;99.90
851;DHT22;412;51.400;7.480;2023-03-14T00:59:56;13.10;99.90
851;DHT22;412;51.400;7.480;2023-03-14T01:02:22;13.00;99.90
851;DHT22;412;51.400;7.480;2023-03-14T01:04:48;13.00;99.90
851;DHT22;412;51.400;7.480;2023-03-14T01:07:15;13.00;99.90
851;DHT22;412;51.400;7.480;2023-03-14T01:09:40;13.00;99.90
851;DHT22;412;51.400;7.480;2023-03-14T01:12:06;13.00;99.90
851;DHT22;412;51.400;7.480;2023-03-14T01:14:32;13.00;99.90
851;DHT22;412;51.400;7.480;2023-03-14T01:16:58;13.10;99.90
851;DHT22;412;51.400;7.480;2023-03-14T01:19:28;13.10;99.90
851;DHT22;412;51.400;7.480;2023-03-14T01:21:54;13.00;99.90
851;DHT22;412;51.400;7.480;2023-03-14T01:24:19;13.20;99.90
851;DHT22;412;51.400;7.480;2023-03-14T01:26:46;13.10;99.90
851;DHT22;412;51.400;7.480;2023-03-14T01:29:12;13.20;99.90
851;DHT22;412;51.400;7.480;2023-03-14T01:31:37;13.20;99.90
851;DHT22;412;51.400;7.480;2023-03-14T01:34:03;13.00;99.90
851;DHT22;412;51.400;7.480;2023-03-14T01:36:29;12.70;99.90
851;DHT22;412;51.400;7.480;2023-03-14T01:38:54;12.70;99.90
851;DHT22;412;51.400;7.480;2023-03-14T01:41:22;12.60;99.90
851;DHT22;412;51.400;7.480;2023-03-14T01:43:49;12.40;99.90
851;DHT22;412;51.400;7.480;2023-03-14T01:49:04;12.30;99.90
851;DHT22;412;51.400;7.480;2023-03-14T01:57:17;12.50;99.90
851;DHT22;412;51.400;7.480;2023-03-14T02:00:15;12.40;99.90
851;DHT22;412;51.400;7.480;2023-03-14T02:02:46;12.00;99.90
851;DHT22;412;51.400;7.480;2023-03-14T02:05:16;12.00;99.90
851;DHT22;412;51.400;7.480;2023-03-14T02:07:47;11.90;99.90
851;DHT22;412;51.400;7.480;2023-03-14T02:10:16;12.00;99.90
851;DHT22;412;51.400;7.480;2023-03-14T02:12:45;12.00;99.90
851;DHT22;412;51.400;7.480;2023-03-14T02:15:11;12.10;99.90
851;DHT22;412;51.400;7.480;2023-03-14T02:17:38;12.10;99.90
851;DHT22;412;51.400;7.480;2023-03-14T02:20:22;12.10;99.90
851;DHT22;412;51.400;7.480;2023-03-14T02:22:49;12.20;99.90
851;DHT22;412;51.400;7.480;2023-03-14T02:26:34;12.20;99.90
851;DHT22;412;51.400;7.480;2023-03-14T02:28:28;12.20;99.90
851;DHT22;412;51.400;7.480;2023-03-14T02:30:54;12.10;99.90
851;DHT22;412;51.400;7.480;2023-03-14T02:33:21;12.00;99.90
851;DHT22;412;51.400;7.480;2023-03-14T02:36:02;12.10;99.90
851;DHT22;412;51.400;7.480;2023-03-14T02:41:29;12.00;99.90
851;DHT22;412;51.400;7.480;2023-03-14T02:43:55;12.00;99.90
851;DHT22;412;51.400;7.480;2023-03-14T02:46:21;12.10;99.90
851;DHT22;412;51.400;7.480;2023-03-14T02:48:53;12.10;99.90
851;DHT22;412;51.400;7.480;2023-03-14T02:51:21;12.10;99.90
851;DHT22;412;51.400;7.480;2023-03-14T02:53:47;12.20;99.90
851;DHT22;412;51.400;7.480;2023-03-14T02:56:12;12.20;99.90
851;DHT22;412;51.400;7.480;2023-03-14T02:58:38;12.20;99.90
851;DHT22;412;51.400;7.480;2023-03-14T03:01:04;12.20;99.90
851;DHT22;412;51.400;7.480;2023-03-14T03:03:30;12.20;99.90
851;DHT22;412;51.400;7.480;2023-03-14T03:05:56;12.20;99.90
851;DHT22;412;51.400;7.480;2023-03-14T03:08:24;12.20;99.90
851;DHT22;412;51.400;7.480;2023-03-14T03:10:51;12.20;99.90
851;DHT22;412;51.400;7.480;2023-03-14T03:13:17;12.20;99.90
851;DHT22;412;51.400;7.480;2023-03-14T03:15:43;12.20;99.90
851;DHT22;412;51.400;7.480;2023-03-14T03:18:09;12.30;99.90
851;DHT22;412;51.400;7.480;2023-03-14T03:20:35;12.30;99.90
851;DHT22;412;51.400;7.480;2023-03-14T03:23:01;12.20;99.90
851;DHT22;412;51.400;7.480;2023-03-14T03:25:27;12.20;99.90
851;DHT22;412;51.400;7.480;2023-03-14T03:27:54;12.20;99.90
851;DHT22;412;51.400;7.480;2023-03-14T03:30:19;12.20;99.90
851;DHT22;412;51.400;7.480;2023-03-14T03:32:45;12.20;99.90
851;DHT22;412;51.400;7.480;2023-03-14T03:35:11;12.20;99.90
851;DHT22;412;51.400;7.480;2023-03-14T03:37:38;12.30;99.90
851;DHT22;412;51.400;7.480;2023-03-14T03:40:04;12.20;99.90
851;DHT22;412;51.400;7.480;2023-03-14T03:42:32;12.20;99.90
851;DHT22;412;51.400;7.480;2023-03-14T03:44:59;12.10;99.90
851;DHT22;412;51.400;7.480;2023-03-14T03:47:25;12.10;99.90
851;DHT22;412;51.400;7.480;2023-03-14T03:49:51;12.10;99.90
851;DHT22;412;51.400;7.480;2023-03-14T03:52:17;12.20;99.90
851;DHT22;412;51.400;7.480;2023-03-14T03:54:43;12.20;99.90
851;DHT22;412;51.400;7.480;2023-03-14T03:57:08;12.30;99.90
851;DHT22;412;51.400;7.480;2023-03-14T03:59:34;12.40;99.90
851;DHT22;412;51.400;7.480;2023-03-14T04:02:00;12.40;99.90
851;DHT22;412;51.400;7.480;2023-03-14T04:04:26;12.40;99.90
851;DHT22;412;51.400;7.480;2023-03-14T04:06:51;12.30;99.90
851;DHT22;412;51.400;7.480;2023-03-14T04:09:17;12.30;99.90
851;DHT22;412;51.400;7.480;2023-03-14T04:11:43;12.30;99.90
851;DHT22;412;51.400;7.480;2023-03-14T04:14:09;12.20;99.90
851;DHT22;412;51.400;7.480;2023-03-14T04:16:34;12.20;99.90
851;DHT22;412;51.400;7.480;2023-03-14T04:19:01;12.10;99.90
851;DHT22;412;51.400;7.480;2023-03-14T04:21:27;12.10;99.90
851;DHT22;412;51.400;7.480;2023-03-14T04:23:52;11.90;99.90
851;DHT22;412;51.400;7.480;2023-03-14T04:26:18;11.80;99.90
851;DHT22;412;51.400;7.480;2023-03-14T04:28:44;11.80;99.90
851;DHT22;412;51.400;7.480;2023-03-14T04:31:12;11.80;99.90
851;DHT22;412;51.400;7.480;2023-03-14T04:33:37;11.80;99.90
851;DHT22;412;51.400;7.480;2023-03-14T04:36:05;11.80;99.90
851;DHT22;412;51.400;7.480;2023-03-14T04:38:31;11.90;99.90
851;DHT22;412;51.400;7.480;2023-03-14T04:40:57;11.90;99.90
851;DHT22;412;51.400;7.480;2023-03-14T04:43:23;12.00;99.90
851;DHT22;412;51.400;7.480;2023-03-14T04:45:48;12.00;99.90
851;DHT22;412;51.400;7.480;2023-03-14T04:48:14;12.10;99.90
851;DHT22;412;51.400;7.480;2023-03-14T04:50:40;12.10;99.90
851;DHT22;412;51.400;7.480;2023-03-14T04:53:06;12.20;99.90
851;DHT22;412;51.400;7.480;2023-03-14T04:55:32;12.20;99.90
851;DHT22;412;51.400;7.480;2023-03-14T04:58:00;12.20;99.90
851;DHT22;412;51.400;7.480;2023-03-14T05:00:25;12.20;99.90
851;DHT22;412;51.400;7.480;2023-03-14T05:02:51;12.10;99.90
851;DHT22;412;51.400;7.480;2023-03-14T05:05:17;12.00;99.90
851;DHT22;412;51.400;7.480;2023-03-14T05:07:42;12.10;99.90
851;DHT22;412;51.400;7.480;2023-03-14T05:10:09;12.10;99.90
851;DHT22;412;51.400;7.480;2023-03-14T05:12:35;12.10;99.90
851;DHT22;412;51.400;7.480;2023-03-14T05:15:01;12.10;99.90
851;DHT22;412;51.400;7.480;2023-03-14T05:17:26;12.20;99.90
851;DHT22;412;51.400;7.480;2023-03-14T05:19:52;12.20;99.90
851;DHT22;412;51.400;7.480;2023-03-14T05:22:18;12.30;99.90
851;DHT22;412;51.400;7.480;2023-03-14T05:24:43;12.30;99.90
851;DHT22;412;51.400;7.480;2023-03-14T05:27:09;12.20;99.90
851;DHT22;412;51.400;7.480;2023-03-14T05:29:35;12.10;99.90
851;DHT22;412;51.400;7.480;2023-03-14T05:32:01;12.10;99.90
851;DHT22;412;51.400;7.480;2023-03-14T05:34:26;12.10;99.90
851;DHT22;412;51.400;7.480;2023-03-14T05:36:52;12.00;99.90
851;DHT22;412;51.400;7.480;2023-03-14T05:39:18;11.80;99.90
851;DHT22;412;51.400;7.480;2023-03-14T05:41:43;12.00;99.90
851;DHT22;412;51.400;7.480;2023-03-14T05:44:09;12.00;99.90
851;DHT22;412;51.400;7.480;2023-03-14T05:46:35;11.80;99.90
851;DHT22;412;51.400;7.480;2023-03-14T05:49:01;11.80;99.90
851;DHT22;412;51.400;7.480;2023-03-14T05:51:26;11.90;99.90
851;DHT22;412;51.400;7.480;2023-03-14T05:53:52;11.90;99.90
851;DHT22;412;51.400;7.480;2023-03-14T05:56:18;12.00;99.90
851;DHT22;412;51.400;7.480;2023-03-14T05:58:44;12.00;99.90
851;DHT22;412;51.400;7.480;2023-03-14T06:01:09;11.90;99.90
851;DHT22;412;51.400;7.480;2023-03-14T06:03:35;11.70;99.90
851;DHT22;412;51.400;7.480;2023-03-14T06:06:01;11.70;99.90
851;DHT22;412;51.400;7.480;2023-03-14T06:08:27;11.70;99.90
851;DHT22;412;51.400;7.480;2023-03-14T06:10:53;11.50;99.90
851;DHT22;412;51.400;7.480;2023-03-14T06:13:19;11.50;99.90
851;DHT22;412;51.400;7.480;2023-03-14T06:15:45;11.60;99.90
851;DHT22;412;51.400;7.480;2023-03-14T06:18:11;11.70;99.90
851;DHT22;412;51.400;7.480;2023-03-14T06:20:38;11.70;99.90
851;DHT22;412;51.400;7.480;2023-03-14T06:23:08;11.70;99.90
851;DHT22;412;51.400;7.480;2023-03-14T06:25:34;11.60;99.90
851;DHT22;412;51.400;7.480;2023-03-14T06:28:00;11.70;99.90
851;DHT22;412;51.400;7.480;2023-03-14T06:30:27;11.70;99.90
851;DHT22;412;51.400;7.480;2023-03-14T06:32:53;11.70;99.90
851;DHT22;412;51.400;7.480;2023-03-14T06:35:18;11.70;99.90
851;DHT22;412;51.400;7.480;2023-03-14T06:37:44;11.70;99.90
851;DHT22;412;51.400;7.480;2023-03-14T06:40:11;11.70;99.90
851;DHT22;412;51.400;7.480;2023-03-14T06:42:43;11.70;99.90
851;DHT22;412;51.400;7.480;2023-03-14T06:45:09;11.70;99.90
851;DHT22;412;51.400;7.480;2023-03-14T06:47:35;11.70;99.90
851;DHT22;412;51.400;7.480;2023-03-14T06:50:01;11.70;99.90
851;DHT22;412;51.400;7.480;2023-03-14T06:52:27;11.80;99.90
851;DHT22;412;51.400;7.480;2023-03-14T06:54:52;11.90;99.90
851;DHT22;412;51.400;7.480;2023-03-14T06:57:18;11.80;99.90
851;DHT22;412;51.400;7.480;2023-03-14T06:59:44;11.90;99.90
851;DHT22;412;51.400;7.480;2023-03-14T07:02:13;11.80;99.90
851;DHT22;412;51.400;7.480;2023-03-14T07:04:39;11.80;99.90
851;DHT22;412;51.400;7.480;2023-03-14T07:07:05;11.80;99.90
851;DHT22;412;51.400;7.480;2023-03-14T07:09:31;11.80;99.90
851;DHT22;412;51.400;7.480;2023-03-14T07:11:57;12.10;99.90
851;DHT22;412;51.400;7.480;2023-03-14T07:14:23;12.40;99.90
851;DHT22;412;51.400;7.480;2023-03-14T07:16:48;12.10;99.90
851;DHT22;412;51.400;7.480;2023-03-14T07:19:14;12.10;99.90
851;DHT22;412;51.400;7.480;2023-03-14T07:26:32;12.80;99.90
851;DHT22;412;51.400;7.480;2023-03-14T07:28:58;13.00;99.90
851;DHT22;412;51.400;7.480;2023-03-14T07:31:24;13.20;99.90
851;DHT22;412;51.400;7.480;2023-03-14T07:33:50;13.30;99.90
851;DHT22;412;51.400;7.480;2023-03-14T07:36:16;13.40;99.90
851;DHT22;412;51.400;7.480;2023-03-14T07:38:42;13.50;99.90
851;DHT22;412;51.400;7.480;2023-03-14T07:41:08;13.70;99.90
851;DHT22;412;51.400;7.480;2023-03-14T07:43:34;13.50;99.90
851;DHT22;412;51.400;7.480;2023-03-14T07:46:00;13.40;99.90
851;DHT22;412;51.400;7.480;2023-03-14T07:48:26;13.10;99.90
851;DHT22;412;51.400;7.480;2023-03-14T07:50:53;12.90;99.90
851;DHT22;412;51.400;7.480;2023-03-14T07:53:20;12.90;99.90
851;DHT22;412;51.400;7.480;2023-03-14T07:55:46;12.80;99.90
851;DHT22;412;51.400;7.480;2023-03-14T07:58:13;12.80;99.90
851;DHT22;412;51.400;7.480;2023-03-14T08:00:39;12.80;99.90
851;DHT22;412;51.400;7.480;2023-03-14T08:03:05;12.80;99.90
851;DHT22;412;51.400;7.480;2023-03-14T08:05:34;12.80;99.90
851;DHT22;412;51.400;7.480;2023-03-14T08:08:00;12.80;99.90
851;DHT22;412;51.400;7.480;2023-03-14T08:10:26;12.80;99.90
851;DHT22;412;51.400;7.480;2023-03-14T08:12:55;12.70;99.90
851;DHT22;412;51.400;7.480;2023-03-14T08:15:22;12.60;99.90
851;DHT22;412;51.400;7.480;2023-03-14T08:17:48;12.40;99.90
851;DHT22;412;51.400;7.480;2023-03-14T08:20:27;12.50;99.90
851;DHT22;412;51.400;7.480;2023-03-14T08:22:56;12.50;99.90
851;DHT22;412;51.400;7.480;2023-03-14T08:25:22;12.60;99.90
851;DHT22;412;51.400;7.480;2023-03-14T08:27:48;12.50;99.90
851;DHT22;412;51.400;7.480;2023-03-14T08:30:15;12.50;99.90
851;DHT22;412;51.400;7.480;2023-03-14T08:32:41;12.70;99.90
851;DHT22;412;51.400;7.480;2023-03-14T08:35:07;12.60;99.90
851;DHT22;412;51.400;7.480;2023-03-14T08:37:34;12.50;99.90
851;DHT22;412;51.400;7.480;2023-03-14T08:40:00;12.60;99.90
851;DHT22;412;51.400;7.480;2023-03-14T08:42:26;12.60;99.90
851;DHT22;412;51.400;7.480;2023-03-14T08:44:52;12.50;99.90
851;DHT22;412;51.400;7.480;2023-03-14T08:47:18;12.50;99.90
851;DHT22;412;51.400;7.480;2023-03-14T08:49:44;12.50;99.90
851;DHT22;412;51.400;7.480;2023-03-14T08:52:10;12.50;99.90
851;DHT22;412;51.400;7.480;2023-03-14T08:54:35;12.60;99.90
851;DHT22;412;51.400;7.480;2023-03-14T08:57:01;12.60;99.90
851;DHT22;412;51.400;7.480;2023-03-14T08:59:27;12.60;99.90
851;DHT22;412;51.400;7.480;2023-03-14T09:01:53;12.60;99.90
851;DHT22;412;51.400;7.480;2023-03-14T09:04:20;12.60;99.90
851;DHT22;412;51.400;7.480;2023-03-14T09:06:45;12.70;99.90
851;DHT22;412;51.400;7.480;2023-03-14T09:09:11;12.60;99.90
851;DHT22;412;51.400;7.480;2023-03-14T09:11:39;12.70;99.90
851;DHT22;412;51.400;7.480;2023-03-14T09:14:04;12.80;99.90
851;DHT22;412;51.400;7.480;2023-03-14T09:16:30;12.80;99.90
851;DHT22;412;51.400;7.480;2023-03-14T09:18:56;12.80;99.90
851;DHT22;412;51.400;7.480;2023-03-14T09:21:26;12.80;99.90
851;DHT22;412;51.400;7.480;2023-03-14T09:23:52;12.80;99.90
851;DHT22;412;51.400;7.480;2023-03-14T09:26:18;12.80;99.90
851;DHT22;412;51.400;7.480;2023-03-14T09:28:44;12.90;99.90
851;DHT22;412;51.400;7.480;2023-03-14T09:31:11;12.90;99.90
851;DHT22;412;51.400;7.480;2023-03-14T09:33:38;13.00;99.90
851;DHT22;412;51.400;7.480;2023-03-14T09:36:04;13.00;99.90
851;DHT22;412;51.400;7.480;2023-03-14T09:38:30;13.00;99.90
851;DHT22;412;51.400;7.480;2023-03-14T09:41:00;13.00;99.90
851;DHT22;412;51.400;7.480;2023-03-14T09:43:29;13.00;99.90
851;DHT22;412;51.400;7.480;2023-03-14T09:45:57;13.00;99.90
851;DHT22;412;51.400;7.480;2023-03-14T09:48:29;13.00;99.90
851;DHT22;412;51.400;7.480;2023-03-14T09:50:58;13.00;99.90
851;DHT22;412;51.400;7.480;2023-03-14T09:53:26;13.00;99.90
851;DHT22;412;51.400;7.480;2023-03-14T09:55:53;13.00;99.90
851;DHT22;412;51.400;7.480;2023-03-14T09:58:22;12.90;99.90
851;DHT22;412;51.400;7.480;2023-03-14T10:00:50;12.80;99.90
851;DHT22;412;51.400;7.480;2023-03-14T10:05:46;12.60;99.90
851;DHT22;412;51.400;7.480;2023-03-14T10:08:13;12.50;99.90
851;DHT22;412;51.400;7.480;2023-03-14T10:10:40;12.40;99.90
851;DHT22;412;51.400;7.480;2023-03-14T10:13:26;12.30;99.90
851;DHT22;412;51.400;7.480;2023-03-14T10:16:05;12.20;99.90
851;DHT22;412;51.400;7.480;2023-03-14T10:18:34;12.00;99.90
851;DHT22;412;51.400;7.480;2023-03-14T10:21:16;12.00;99.90
851;DHT22;412;51.400;7.480;2023-03-14T10:23:43;11.80;99.90
851;DHT22;412;51.400;7.480;2023-03-14T10:26:15;11.60;99.90
851;DHT22;412;51.400;7.480;2023-03-14T10:28:46;11.50;99.90
851;DHT22;412;51.400;7.480;2023-03-14T10:31:13;11.40;99.90
851;DHT22;412;51.400;7.480;2023-03-14T10:33:39;11.40;99.90
851;DHT22;412;51.400;7.480;2023-03-14T10:36:21;11.30;99.90
851;DHT22;412;51.400;7.480;2023-03-14T10:38:48;11.20;99.90
851;DHT22;412;51.400;7.480;2023-03-14T10:41:32;11.20;99.90
851;DHT22;412;51.400;7.480;2023-03-14T10:43:59;11.30;99.90
851;DHT22;412;51.400;7.480;2023-03-14T10:46:30;11.30;99.90
851;DHT22;412;51.400;7.480;2023-03-14T10:48:56;11.30;99.90
851;DHT22;412;51.400;7.480;2023-03-14T10:51:27;11.40;99.90
851;DHT22;412;51.400;7.480;2023-03-14T10:53:59;11.40;99.90
851;DHT22;412;51.400;7.480;2023-03-14T10:56:27;11.30;99.90
851;DHT22;412;51.400;7.480;2023-03-14T10:58:58;11.40;99.90
851;DHT22;412;51.400;7.480;2023-03-14T11:04:21;11.20;99.90
851;DHT22;412;51.400;7.480;2023-03-14T11:11:49;11.00;99.90
851;DHT22;412;51.400;7.480;2023-03-14T11:14:29;11.00;99.90
851;DHT22;412;51.400;7.480;2023-03-14T11:17:07;11.00;99.90
851;DHT22;412;51.400;7.480;2023-03-14T11:19:43;11.00;99.90
851;DHT22;412;51.400;7.480;2023-03-14T11:22:37;11.00;99.90
851;DHT22;412;51.400;7.480;2023-03-14T11:25:32;10.80;99.90
851;DHT22;412;51.400;7.480;2023-03-14T11:30:51;10.50;99.90
851;DHT22;412;51.400;7.480;2023-03-14T11:33:27;10.40;99.90
851;DHT22;412;51.400;7.480;2023-03-14T11:36:10;10.30;99.90
851;DHT22;412;51.400;7.480;2023-03-14T11:38:41;10.30;99.90
851;DHT22;412;51.400;7.480;2023-03-14T11:41:15;10.30;99.90
851;DHT22;412;51.400;7.480;2023-03-14T11:43:48;10.40;99.90
851;DHT22;412;51.400;7.480;2023-03-14T11:46:27;10.50;99.90
851;DHT22;412;51.400;7.480;2023-03-14T11:49:01;10.40;99.90
851;DHT22;412;51.400;7.480;2023-03-14T11:51:41;10.40;99.90
851;DHT22;412;51.400;7.480;2023-03-14T11:59:21;10.30;99.90
851;DHT22;412;51.400;7.480;2023-03-14T12:10:39;10.30;99.90
851;DHT22;412;51.400;7.480;2023-03-14T12:13:11;10.30;99.90
851;DHT22;412;51.400;7.480;2023-03-14T12:15:41;10.30;99.90
851;DHT22;412;51.400;7.480;2023-03-14T12:18:21;10.30;99.90
851;DHT22;412;51.400;7.480;2023-03-14T12:20:56;10.30;99.90
851;DHT22;412;51.400;7.480;2023-03-14T12:23:24;10.30;99.90
851;DHT22;412;51.400;7.480;2023-03-14T12:28:37;10.30;99.90
851;DHT22;412;51.400;7.480;2023-03-14T12:41:44;10.20;99.90
851;DHT22;412;51.400;7.480;2023-03-14T12:49:49;10.30;99.90
851;DHT22;412;51.400;7.480;2023-03-14T12:52:21;10.30;99.90
851;DHT22;412;51.400;7.480;2023-03-14T13:00:31;10.40;99.90
851;DHT22;412;51.400;7.480;2023-03-14T13:03:22;10.40;99.90
851;DHT22;412;51.400;7.480;2023-03-14T13:05:55;10.50;99.90
851;DHT22;412;51.400;7.480;2023-03-14T13:08:44;10.50;99.90
851;DHT22;412;51.400;7.480;2023-03-14T13:11:19;10.60;99.90
851;DHT22;412;51.400;7.480;2023-03-14T13:13:48;10.70;99.90
851;DHT22;412;51.400;7.480;2023-03-14T13:16:20;10.80;99.90
851;DHT22;412;51.400;7.480;2023-03-14T13:18:48;10.90;99.90
851;DHT22;412;51.400;7.480;2023-03-14T13:21:18;10.90;99.90
851;DHT22;412;51.400;7.480;2023-03-14T13:26:25;10.90;99.90
851;DHT22;412;51.400;7.480;2023-03-14T13:28:57;10.90;99.90
851;DHT22;412;51.400;7.480;2023-03-14T13:31:24;10.80;99.90
851;DHT22;412;51.400;7.480;2023-03-14T13:33:58;10.60;99.90
851;DHT22;412;51.400;7.480;2023-03-14T13:36:24;10.60;99.90
851;DHT22;412;51.400;7.480;2023-03-14T13:38:59;10.50;99.90
851;DHT22;412;51.400;7.480;2023-03-14T13:41:27;10.40;99.90
851;DHT22;412;51.400;7.480;2023-03-14T13:44:05;10.30;99.90
851;DHT22;412;51.400;7.480;2023-03-14T13:46:34;10.20;99.90
851;DHT22;412;51.400;7.480;2023-03-14T13:49:06;10.20;99.90
851;DHT22;412;51.400;7.480;2023-03-14T13:51:33;10.20;99.90
851;DHT22;412;51.400;7.480;2023-03-14T13:53:59;10.10;99.90
851;DHT22;412;51.400;7.480;2023-03-14T13:56:27;10.10;99.90
851;DHT22;412;51.400;7.480;2023-03-14T13:58:54;10.00;99.90
851;DHT22;412;51.400;7.480;2023-03-14T14:03:50;10.00;99.90
851;DHT22;412;51.400;7.480;2023-03-14T14:06:37;9.90;99.90
851;DHT22;412;51.400;7.480;2023-03-14T14:09:16;9.80;99.90
851;DHT22;412;51.400;7.480;2023-03-14T14:14:15;10.00;99.90
851;DHT22;412;51.400;7.480;2023-03-14T14:16:44;10.00;99.90
851;DHT22;412;51.400;7.480;2023-03-14T14:19:11;10.10;99.90
851;DHT22;412;51.400;7.480;2023-03-14T14:21:38;10.10;99.90
851;DHT22;412;51.400;7.480;2023-03-14T14:24:04;10.10;99.90
851;DHT22;412;51.400;7.480;2023-03-14T14:26:31;10.10;99.90
851;DHT22;412;51.400;7.480;2023-03-14T14:29:04;10.10;99.90
851;DHT22;412;51.400;7.480;2023-03-14T14:31:31;10.30;99.90
851;DHT22;412;51.400;7.480;2023-03-14T14:33:59;10.20;99.90
851;DHT22;412;51.400;7.480;2023-03-14T14:36:32;10.30;99.90
851;DHT22;412;51.400;7.480;2023-03-14T14:41:45;10.70;99.90
851;DHT22;412;51.400;7.480;2023-03-14T14:44:14;10.90;99.90
851;DHT22;412;51.400;7.480;2023-03-14T14:46:42;11.00;99.90
851;DHT22;412;51.400;7.480;2023-03-14T14:49:19;11.10;99.90
851;DHT22;412;51.400;7.480;2023-03-14T14:51:49;11.30;99.90
851;DHT22;412;51.400;7.480;2023-03-14T14:54:16;11.40;99.90
851;DHT22;412;51.400;7.480;2023-03-14T14:56:47;11.50;99.90
851;DHT22;412;51.400;7.480;2023-03-14T14:59:25;11.60;99.90
851;DHT22;412;51.400;7.480;2023-03-14T15:01:58;11.60;99.90
851;DHT22;412;51.400;7.480;2023-03-14T15:04:24;11.70;99.90
851;DHT22;412;51.400;7.480;2023-03-14T15:06:50;11.70;99.90
851;DHT22;412;51.400;7.480;2023-03-14T15:09:18;11.70;97.30
851;DHT22;412;51.400;7.480;2023-03-14T15:11:46;11.80;96.80
851;DHT22;412;51.400;7.480;2023-03-14T15:14:12;11.80;98.30
851;DHT22;412;51.400;7.480;2023-03-14T15:16:38;11.80;96.70
851;DHT22;412;51.400;7.480;2023-03-14T15:19:21;11.70;94.10
851;DHT22;412;51.400;7.480;2023-03-14T15:21:49;11.70;91.30
851;DHT22;412;51.400;7.480;2023-03-14T15:24:14;11.70;91.70
851;DHT22;412;51.400;7.480;2023-03-14T15:26:42;11.70;89.40
851;DHT22;412;51.400;7.480;2023-03-14T15:29:10;11.60;87.30
851;DHT22;412;51.400;7.480;2023-03-14T15:31:38;11.60;84.30
851;DHT22;412;51.400;7.480;2023-03-14T15:34:04;11.50;83.50
851;DHT22;412;51.400;7.480;2023-03-14T15:36:32;11.30;84.50
851;DHT22;412;51.400;7.480;2023-03-14T15:38:59;11.30;85.30
851;DHT22;412;51.400;7.480;2023-03-14T15:41:26;11.20;90.00
851;DHT22;412;51.400;7.480;2023-03-14T15:43:52;11.20;86.00
851;DHT22;412;51.400;7.480;2023-03-14T15:46:18;11.10;84.60
851;DHT22;412;51.400;7.480;2023-03-14T15:48:45;11.20;83.60
851;DHT22;412;51.400;7.480;2023-03-14T15:51:11;11.10;85.20
851;DHT22;412;51.400;7.480;2023-03-14T15:53:37;11.10;85.00
851;DHT22;412;51.400;7.480;2023-03-14T15:56:05;11.20;85.30
851;DHT22;412;51.400;7.480;2023-03-14T15:58:31;11.10;82.60
851;DHT22;412;51.400;7.480;2023-03-14T16:01:00;11.10;84.00
851;DHT22;412;51.400;7.480;2023-03-14T16:03:29;11.10;85.40
851;DHT22;412;51.400;7.480;2023-03-14T16:05:55;11.10;85.20
851;DHT22;412;51.400;7.480;2023-03-14T16:08:22;11.00;83.80
851;DHT22;412;51.400;7.480;2023-03-14T16:10:48;11.00;84.50
851;DHT22;412;51.400;7.480;2023-03-14T16:13:14;11.00;83.90
851;DHT22;412;51.400;7.480;2023-03-14T16:15:40;11.00;83.90
851;DHT22;412;51.400;7.480;2023-03-14T16:18:05;11.00;85.00
851;DHT22;412;51.400;7.480;2023-03-14T16:20:31;10.90;80.60
851;DHT22;412;51.400;7.480;2023-03-14T16:22:57;10.80;81.90
851;DHT22;412;51.400;7.480;2023-03-14T16:25:23;10.80;81.60
851;DHT22;412;51.400;7.480;2023-03-14T16:27:49;10.80;82.20
851;DHT22;412;51.400;7.480;2023-03-14T16:30:14;10.80;80.60
851;DHT22;412;51.400;7.480;2023-03-14T16:32:40;10.70;81.30
851;DHT22;412;51.400;7.480;2023-03-14T16:35:06;10.60;78.60
851;DHT22;412;51.400;7.480;2023-03-14T16:37:32;10.50;77.00
851;DHT22;412;51.400;7.480;2023-03-14T16:39:58;10.40;79.60
851;DHT22;412;51.400;7.480;2023-03-14T16:42:23;10.40;78.20
851;DHT22;412;51.400;7.480;2023-03-14T16:44:49;10.20;75.30
851;DHT22;412;51.400;7.480;2023-03-14T16:47:17;10.20;72.80
851;DHT22;412;51.400;7.480;2023-03-14T16:49:43;10.10;69.90
851;DHT22;412;51.400;7.480;2023-03-14T16:52:09;10.00;69.00
851;DHT22;412;51.400;7.480;2023-03-14T16:54:35;10.00;69.60
851;DHT22;412;51.400;7.480;2023-03-14T16:57:00;10.00;70.30
851;DHT22;412;51.400;7.480;2023-03-14T16:59:26;9.80;71.90
851;DHT22;412;51.400;7.480;2023-03-14T17:01:54;9.70;72.80
851;DHT22;412;51.400;7.480;2023-03-14T17:04:20;9.60;69.50
851;DHT22;412;51.400;7.480;2023-03-14T17:06:46;9.60;70.80
851;DHT22;412;51.400;7.480;2023-03-14T17:09:12;9.70;69.20
851;DHT22;412;51.400;7.480;2023-03-14T17:11:38;9.70;70.50
851;DHT22;412;51.400;7.480;2023-03-14T17:14:04;9.70;69.40
851;DHT22;412;51.400;7.480;2023-03-14T17:16:30;9.70;71.10
851;DHT22;412;51.400;7.480;2023-03-14T17:18:55;9.60;70.40
851;DHT22;412;51.400;7.480;2023-03-14T17:21:21;9.60;69.00
851;DHT22;412;51.400;7.480;2023-03-14T17:23:47;9.60;70.40
851;DHT22;412;51.400;7.480;2023-03-14T17:26:14;9.70;71.70
851;DHT22;412;51.400;7.480;2023-03-14T17:28:40;9.60;72.50
851;DHT22;412;51.400;7.480;2023-03-14T17:31:08;9.60;71.10
851;DHT22;412;51.400;7.480;2023-03-14T17:33:34;9.60;70.70
851;DHT22;412;51.400;7.480;2023-03-14T17:36:01;9.50;71.00
851;DHT22;412;51.400;7.480;2023-03-14T17:38:27;9.50;71.40
851;DHT22;412;51.400;7.480;2023-03-14T17:40:52;9.60;71.10
851;DHT22;412;51.400;7.480;2023-03-14T17:43:18;9.60;71.40
851;DHT22;412;51.400;7.480;2023-03-14T17:45:44;9.60;73.50
851;DHT22;412;51.400;7.480;2023-03-14T17:48:10;9.60;73.30
851;DHT22;412;51.400;7.480;2023-03-14T17:50:37;9.60;72.00
851;DHT22;412;51.400;7.480;2023-03-14T17:53:03;9.70;71.80
851;DHT22;412;51.400;7.480;2023-03-14T17:55:29;9.70;72.30
851;DHT22;412;51.400;7.480;2023-03-14T17:57:56;9.70;72.80
851;DHT22;412;51.400;7.480;2023-03-14T18:00:22;9.80;74.10